sensor_id;sensor_type;location;lat;lon;timestamp;pressure;altitude;pressure_sealevel;temperature;humidity
71384;BME280;67558;52.166;5.004;2024-02-15T00:00:52;101665.28;;;24.08;40.19
71384;BME280;67558;52.166;5.004;2024-02-15T00:03:18;101667.75;;;24.01;40.67
71384;BME280;67558;52.166;5.004;2024-02-15T00:05:45;101670.41;;;24.10;40.30
71384;BME280;67558;52.166;5.004;2024-02-15T00:08:12;101663.41;;;24.00;40.75
71384;BME280;67558;52.166;5.004;2024-02-15T00:10:37;101665.50;;;24.03;40.81
71384;BME280;67558;52.166;5.004;2024-02-15T00:13:03;101660.03;;;24.03;40.30
71384;BME280;67558;52.166;5.004;2024-02-15T00:15:31;101661.50;;;24.01;40.52
71384;BME280;67558;52.166;5.004;2024-02-15T00:17:56;101663.88;;;24.02;40.59
71384;BME280;67558;52.166;5.004;2024-02-15T00:20:22;101662.50;;;23.96;40.54
71384;BME280;67558;52.166;5.004;2024-02-15T00:22:47;101666.16;;;24.00;40.68
71384;BME280;67558;52.166;5.004;2024-02-15T00:25:13;101649.03;;;23.91;40.54
71384;BME280;67558;52.166;5.004;2024-02-15T00:27:39;101662.16;;;23.98;40.67
71384;BME280;67558;52.166;5.004;2024-02-15T00:30:05;101664.91;;;23.98;40.65
71384;BME280;67558;52.166;5.004;2024-02-15T00:32:33;101658.63;;;23.97;40.36
71384;BME280;67558;52.166;5.004;2024-02-15T00:34:58;101652.50;;;24.00;40.56
71384;BME280;67558;52.166;5.004;2024-02-15T00:37:24;101650.69;;;24.04;40.27
71384;BME280;67558;52.166;5.004;2024-02-15T00:39:50;101646.84;;;24.05;40.30
71384;BME280;67558;52.166;5.004;2024-02-15T00:42:16;101645.13;;;24.01;40.29
71384;BME280;67558;52.166;5.004;2024-02-15T00:44:42;101647.28;;;24.07;40.73
71384;BME280;67558;52.166;5.004;2024-02-15T00:47:11;101632.44;;;23.96;40.33
71384;BME280;67558;52.166;5.004;2024-02-15T00:49:38;101641.44;;;23.97;40.47
71384;BME280;67558;52.166;5.004;2024-02-15T00:52:04;101634.72;;;23.94;40.50
71384;BME280;67558;52.166;5.004;2024-02-15T00:54:29;101639.28;;;24.02;40.49
71384;BME280;67558;52.166;5.004;2024-02-15T00:56:55;101633.81;;;23.90;40.73
71384;BME280;67558;52.166;5.004;2024-02-15T00:59:21;101645.56;;;24.03;40.21
71384;BME280;67558;52.166;5.004;2024-02-15T01:01:46;101639.97;;;23.99;40.58
71384;BME280;67558;52.166;5.004;2024-02-15T01:04:13;101640.19;;;23.94;40.84
71384;BME280;67558;52.166;5.004;2024-02-15T01:06:38;101638.25;;;23.95;40.49
71384;BME280;67558;52.166;5.004;2024-02-15T01:09:04;101630.06;;;23.95;40.60
71384;BME280;67558;52.166;5.004;2024-02-15T01:11:30;101632.31;;;23.92;40.42
71384;BME280;67558;52.166;5.004;2024-02-15T01:14:03;101629.59;;;23.92;40.43
71384;BME280;67558;52.166;5.004;2024-02-15T01:16:28;101629.13;;;23.90;40.71
71384;BME280;67558;52.166;5.004;2024-02-15T01:18:54;101630.84;;;23.95;40.27
71384;BME280;67558;52.166;5.004;2024-02-15T01:21:20;101628.66;;;23.88;40.53
71384;BME280;67558;52.166;5.004;2024-02-15T01:23:47;101626.41;;;23.90;40.67
71384;BME280;67558;52.166;5.004;2024-02-15T01:26:13;101629.69;;;23.96;40.48
71384;BME280;67558;52.166;5.004;2024-02-15T01:28:40;101621.50;;;23.96;40.46
71384;BME280;67558;52.166;5.004;2024-02-15T01:31:10;101628.81;;;23.92;40.50
71384;BME280;67558;52.166;5.004;2024-02-15T01:33:36;101635.38;;;23.91;40.64
71384;BME280;67558;52.166;5.004;2024-02-15T01:36:02;101637.91;;;23.96;40.53
71384;BME280;67558;52.166;5.004;2024-02-15T01:38:27;101625.16;;;23.88;40.95
71384;BME280;67558;52.166;5.004;2024-02-15T01:40:53;101627.41;;;23.86;41.00
71384;BME280;67558;52.166;5.004;2024-02-15T01:43:19;101623.06;;;23.85;40.46
71384;BME280;67558;52.166;5.004;2024-02-15T01:45:44;101622.41;;;23.88;41.11
71384;BME280;67558;52.166;5.004;2024-02-15T01:48:13;101623.81;;;23.94;40.33
71384;BME280;67558;52.166;5.004;2024-02-15T01:50:39;101622.88;;;23.90;40.66
71384;BME280;67558;52.166;5.004;2024-02-15T01:53:07;101615.09;;;23.80;41.00
71384;BME280;67558;52.166;5.004;2024-02-15T01:55:37;101605.75;;;23.81;41.01
71384;BME280;67558;52.166;5.004;2024-02-15T01:58:03;101612.50;;;23.83;40.88
71384;BME280;67558;52.166;5.004;2024-02-15T02:00:30;101606.22;;;23.83;40.74
71384;BME280;67558;52.166;5.004;2024-02-15T02:02:56;101606.56;;;23.81;40.95
71384;BME280;67558;52.166;5.004;2024-02-15T02:05:27;101603.16;;;23.84;40.88
71384;BME280;67558;52.166;5.004;2024-02-15T02:07:53;101598.06;;;23.74;41.04
71384;BME280;67558;52.166;5.004;2024-02-15T02:10:19;101595.75;;;23.85;40.80
71384;BME280;67558;52.166;5.004;2024-02-15T02:12:46;101603.47;;;23.83;41.04
71384;BME280;67558;52.166;5.004;2024-02-15T02:15:11;101607.81;;;23.84;40.65
71384;BME280;67558;52.166;5.004;2024-02-15T02:17:37;101603.47;;;23.83;40.80
71384;BME280;67558;52.166;5.004;2024-02-15T02:20:03;101600.75;;;23.83;40.83
71384;BME280;67558;52.166;5.004;2024-02-15T02:22:36;101584.34;;;23.83;40.73
71384;BME280;67558;52.166;5.004;2024-02-15T02:25:05;101593.25;;;23.80;41.18
71384;BME280;67558;52.166;5.004;2024-02-15T02:27:34;101583.09;;;23.80;40.92
71384;BME280;67558;52.166;5.004;2024-02-15T02:30:11;101589.16;;;23.86;40.79
71384;BME280;67558;52.166;5.004;2024-02-15T02:32:43;101586.63;;;23.81;41.03
71384;BME280;67558;52.166;5.004;2024-02-15T02:35:09;101589.03;;;23.82;41.06
71384;BME280;67558;52.166;5.004;2024-02-15T02:37:41;101589.56;;;23.76;40.61
71384;BME280;67558;52.166;5.004;2024-02-15T02:40:07;101584.25;;;23.79;40.94
71384;BME280;67558;52.166;5.004;2024-02-15T02:42:53;101582.56;;;23.66;41.42
71384;BME280;67558;52.166;5.004;2024-02-15T02:45:21;101577.00;;;23.75;41.17
71384;BME280;67558;52.166;5.004;2024-02-15T02:47:54;101587.63;;;23.76;41.03
71384;BME280;67558;52.166;5.004;2024-02-15T02:50:23;101580.69;;;23.79;40.90
71384;BME280;67558;52.166;5.004;2024-02-15T02:52:48;101575.22;;;23.79;41.02
71384;BME280;67558;52.166;5.004;2024-02-15T02:55:14;101574.13;;;23.80;40.91
71384;BME280;67558;52.166;5.004;2024-02-15T02:57:41;101577.00;;;23.75;41.04
71384;BME280;67558;52.166;5.004;2024-02-15T03:00:09;101564.03;;;23.71;40.74
71384;BME280;67558;52.166;5.004;2024-02-15T03:02:42;101568.53;;;23.76;40.74
71384;BME280;67558;52.166;5.004;2024-02-15T03:05:09;101571.72;;;23.78;40.97
71384;BME280;67558;52.166;5.004;2024-02-15T03:07:37;101569.19;;;23.73;40.79
71384;BME280;67558;52.166;5.004;2024-02-15T03:10:04;101562.00;;;23.68;41.15
71384;BME280;67558;52.166;5.004;2024-02-15T03:12:30;101579.63;;;23.71;41.01
71384;BME280;67558;52.166;5.004;2024-02-15T03:14:55;101565.84;;;23.67;41.24
71384;BME280;67558;52.166;5.004;2024-02-15T03:17:25;101567.22;;;23.74;41.29
71384;BME280;67558;52.166;5.004;2024-02-15T03:19:51;101568.25;;;23.69;41.10
71384;BME280;67558;52.166;5.004;2024-02-15T03:22:17;101574.97;;;23.71;40.98
71384;BME280;67558;52.166;5.004;2024-02-15T03:24:43;101579.97;;;23.69;41.04
71384;BME280;67558;52.166;5.004;2024-02-15T03:27:09;101573.84;;;23.73;41.01
71384;BME280;67558;52.166;5.004;2024-02-15T03:29:37;101561.53;;;23.66;40.93
71384;BME280;67558;52.166;5.004;2024-02-15T03:32:04;101580.66;;;23.66;40.92
71384;BME280;67558;52.166;5.004;2024-02-15T03:34:30;101579.03;;;23.65;41.33
71384;BME280;67558;52.166;5.004;2024-02-15T03:36:57;101561.06;;;23.64;40.94
71384;BME280;67558;52.166;5.004;2024-02-15T03:39:23;101567.47;;;23.68;41.33
71384;BME280;67558;52.166;5.004;2024-02-15T03:41:49;101563.78;;;23.64;41.16
71384;BME280;67558;52.166;5.004;2024-02-15T03:44:15;101557.31;;;23.69;40.84
71384;BME280;67558;52.166;5.004;2024-02-15T03:46:44;101564.59;;;23.65;41.22
71384;BME280;67558;52.166;5.004;2024-02-15T03:49:16;101560.38;;;23.67;41.20
71384;BME280;67558;52.166;5.004;2024-02-15T03:51:42;101569.03;;;23.69;41.26
71384;BME280;67558;52.166;5.004;2024-02-15T03:54:08;101570.06;;;23.65;41.35
71384;BME280;67558;52.166;5.004;2024-02-15T03:56:34;101565.28;;;23.62;41.50
71384;BME280;67558;52.166;5.004;2024-02-15T03:58:59;101555.94;;;23.63;41.23
71384;BME280;67558;52.166;5.004;2024-02-15T04:01:30;101558.19;;;23.61;41.33
71384;BME280;67558;52.166;5.004;2024-02-15T04:03:59;101568.25;;;23.69;40.78
71384;BME280;67558;52.166;5.004;2024-02-15T04:06:26;101559.91;;;23.65;41.34
71384;BME280;67558;52.166;5.004;2024-02-15T04:08:52;101558.75;;;23.54;41.30
71384;BME280;67558;52.166;5.004;2024-02-15T04:11:18;101558.34;;;23.64;40.99
71384;BME280;67558;52.166;5.004;2024-02-15T04:13:44;101550.13;;;23.64;41.08
71384;BME280;67558;52.166;5.004;2024-02-15T04:16:10;101557.28;;;23.57;41.09
71384;BME280;67558;52.166;5.004;2024-02-15T04:18:35;101543.94;;;23.55;41.26
71384;BME280;67558;52.166;5.004;2024-02-15T04:21:01;101541.69;;;23.57;41.35
71384;BME280;67558;52.166;5.004;2024-02-15T04:23:27;101544.53;;;23.61;41.29
71384;BME280;67558;52.166;5.004;2024-02-15T04:25:52;101546.47;;;23.60;41.47
71384;BME280;67558;52.166;5.004;2024-02-15T04:28:19;101541.50;;;23.62;41.41
71384;BME280;67558;52.166;5.004;2024-02-15T04:30:45;101544.69;;;23.64;41.05
71384;BME280;67558;52.166;5.004;2024-02-15T04:33:12;101542.13;;;23.59;41.33
71384;BME280;67558;52.166;5.004;2024-02-15T04:35:40;101544.41;;;23.57;41.26
71384;BME280;67558;52.166;5.004;2024-02-15T04:38:06;101536.69;;;23.59;41.32
71384;BME280;67558;52.166;5.004;2024-02-15T04:40:33;101533.84;;;23.56;41.26
71384;BME280;67558;52.166;5.004;2024-02-15T04:42:59;101531.44;;;23.54;41.40
71384;BME280;67558;52.166;5.004;2024-02-15T04:45:24;101530.44;;;23.59;41.13
71384;BME280;67558;52.166;5.004;2024-02-15T04:47:51;101534.41;;;23.61;41.08
71384;BME280;67558;52.166;5.004;2024-02-15T04:50:18;101531.13;;;23.56;41.24
71384;BME280;67558;52.166;5.004;2024-02-15T04:52:44;101531.91;;;23.56;41.33
71384;BME280;67558;52.166;5.004;2024-02-15T04:55:13;101533.16;;;23.59;41.12
71384;BME280;67558;52.166;5.004;2024-02-15T04:57:41;101540.09;;;23.56;41.47
71384;BME280;67558;52.166;5.004;2024-02-15T05:00:07;101536.91;;;23.54;41.26
71384;BME280;67558;52.166;5.004;2024-02-15T05:02:37;101543.00;;;23.51;41.65
71384;BME280;67558;52.166;5.004;2024-02-15T05:05:11;101547.34;;;23.52;41.26
71384;BME280;67558;52.166;5.004;2024-02-15T05:07:38;101547.34;;;23.52;41.33
71384;BME280;67558;52.166;5.004;2024-02-15T05:10:07;101556.00;;;23.54;41.24
71384;BME280;67558;52.166;5.004;2024-02-15T05:12:33;101555.22;;;23.54;41.50
71384;BME280;67558;52.166;5.004;2024-02-15T05:14:59;101550.22;;;23.56;41.34
71384;BME280;67558;52.166;5.004;2024-02-15T05:17:26;101553.94;;;23.51;41.72
71384;BME280;67558;52.166;5.004;2024-02-15T05:19:54;101543.69;;;23.48;41.39
71384;BME280;67558;52.166;5.004;2024-02-15T05:22:24;101529.03;;;23.52;41.80
71384;BME280;67558;52.166;5.004;2024-02-15T05:24:54;101522.78;;;23.52;41.64
71384;BME280;67558;52.166;5.004;2024-02-15T05:27:20;101514.13;;;23.50;41.66
71384;BME280;67558;52.166;5.004;2024-02-15T05:29:45;101489.56;;;23.50;41.44
71384;BME280;67558;52.166;5.004;2024-02-15T05:32:11;101466.94;;;23.49;41.43
71384;BME280;67558;52.166;5.004;2024-02-15T05:34:38;101439.72;;;23.53;41.78
71384;BME280;67558;52.166;5.004;2024-02-15T05:37:05;101448.94;;;23.48;41.71
71384;BME280;67558;52.166;5.004;2024-02-15T05:39:32;101480.22;;;23.51;41.93
71384;BME280;67558;52.166;5.004;2024-02-15T05:41:57;101493.44;;;23.49;41.46
71384;BME280;67558;52.166;5.004;2024-02-15T05:44:26;101491.81;;;23.48;41.86
71384;BME280;67558;52.166;5.004;2024-02-15T05:46:51;101483.31;;;23.49;41.51
71384;BME280;67558;52.166;5.004;2024-02-15T05:49:17;101472.03;;;23.51;41.44
71384;BME280;67558;52.166;5.004;2024-02-15T05:51:44;101480.22;;;23.51;41.66
71384;BME280;67558;52.166;5.004;2024-02-15T05:54:10;101480.13;;;23.47;41.79
71384;BME280;67558;52.166;5.004;2024-02-15T05:56:36;101484.31;;;23.45;41.54
71384;BME280;67558;52.166;5.004;2024-02-15T05:59:02;101481.44;;;23.41;42.19
71384;BME280;67558;52.166;5.004;2024-02-15T06:01:37;101467.94;;;23.45;41.67
71384;BME280;67558;52.166;5.004;2024-02-15T06:04:04;101475.66;;;23.43;41.61
71384;BME280;67558;52.166;5.004;2024-02-15T06:06:34;101482.56;;;23.40;41.92
71384;BME280;67558;52.166;5.004;2024-02-15T06:08:59;101477.13;;;23.40;41.79
71384;BME280;67558;52.166;5.004;2024-02-15T06:11:26;101482.56;;;23.40;42.10
71384;BME280;67558;52.166;5.004;2024-02-15T06:13:51;101481.13;;;23.43;41.69
71384;BME280;67558;52.166;5.004;2024-02-15T06:16:17;101485.44;;;23.44;41.62
71384;BME280;67558;52.166;5.004;2024-02-15T06:18:43;101482.78;;;23.35;42.03
71384;BME280;67558;52.166;5.004;2024-02-15T06:21:09;101492.84;;;23.43;42.21
71384;BME280;67558;52.166;5.004;2024-02-15T06:23:34;101485.44;;;23.44;41.99
71384;BME280;67558;52.166;5.004;2024-02-15T06:26:01;101485.31;;;23.40;42.00
71384;BME280;67558;52.166;5.004;2024-02-15T06:28:28;101493.16;;;23.42;42.18
71384;BME280;67558;52.166;5.004;2024-02-15T06:31:14;101480.03;;;23.56;41.91
71384;BME280;67558;52.166;5.004;2024-02-15T06:33:59;101479.00;;;23.61;41.88
71384;BME280;67558;52.166;5.004;2024-02-15T06:36:51;101471.41;;;23.66;42.08
71384;BME280;67558;52.166;5.004;2024-02-15T06:39:37;101465.94;;;23.66;41.75
71384;BME280;67558;52.166;5.004;2024-02-15T06:42:12;101458.41;;;23.63;42.11
71384;BME280;67558;52.166;5.004;2024-02-15T06:44:41;101466.59;;;23.63;42.39
71384;BME280;67558;52.166;5.004;2024-02-15T06:47:06;101463.88;;;23.63;42.23
71384;BME280;67558;52.166;5.004;2024-02-15T06:49:32;101469.75;;;23.53;42.09
71384;BME280;67558;52.166;5.004;2024-02-15T06:51:59;101470.72;;;23.69;42.09
71384;BME280;67558;52.166;5.004;2024-02-15T06:54:28;101468.97;;;23.52;42.42
71384;BME280;67558;52.166;5.004;2024-02-15T06:56:53;101478.44;;;23.67;42.41
71384;BME280;67558;52.166;5.004;2024-02-15T06:59:22;101483.91;;;23.67;42.44
71384;BME280;67558;52.166;5.004;2024-02-15T07:01:49;101488.63;;;23.46;42.75
71384;BME280;67558;52.166;5.004;2024-02-15T07:04:19;101484.66;;;23.89;42.08
71384;BME280;67558;52.166;5.004;2024-02-15T07:06:47;101475.53;;;23.85;42.32
71384;BME280;67558;52.166;5.004;2024-02-15T07:09:14;101480.81;;;23.90;42.08
71384;BME280;67558;52.166;5.004;2024-02-15T07:11:41;101489.59;;;24.08;41.84
71384;BME280;67558;52.166;5.004;2024-02-15T07:14:07;101491.28;;;24.00;41.65
71384;BME280;67558;52.166;5.004;2024-02-15T07:16:34;101509.53;;;24.21;41.39
71384;BME280;67558;52.166;5.004;2024-02-15T07:19:00;101513.38;;;24.07;41.69
71384;BME280;67558;52.166;5.004;2024-02-15T07:21:25;101502.56;;;24.11;41.83
71384;BME280;67558;52.166;5.004;2024-02-15T07:23:52;101496.09;;;24.16;41.76
71384;BME280;67558;52.166;5.004;2024-02-15T07:26:21;101487.88;;;24.16;41.78
71384;BME280;67558;52.166;5.004;2024-02-15T07:28:51;101500.06;;;24.18;41.58
71384;BME280;67558;52.166;5.004;2024-02-15T07:31:18;101504.28;;;24.28;41.52
71384;BME280;67558;52.166;5.004;2024-02-15T07:33:44;101510.44;;;24.37;41.51
71384;BME280;67558;52.166;5.004;2024-02-15T07:36:09;101516.34;;;24.39;41.74
71384;BME280;67558;52.166;5.004;2024-02-15T07:38:35;101507.34;;;24.39;41.71
71384;BME280;67558;52.166;5.004;2024-02-15T07:41:00;101501.91;;;24.26;41.81
71384;BME280;67558;52.166;5.004;2024-02-15T07:43:26;101504.97;;;24.25;42.16
71384;BME280;67558;52.166;5.004;2024-02-15T07:45:52;101502.25;;;24.49;41.54
71384;BME280;67558;52.166;5.004;2024-02-15T07:48:17;101491.63;;;24.36;42.02
71384;BME280;67558;52.166;5.004;2024-02-15T07:50:43;101472.38;;;24.44;41.81
71384;BME280;67558;52.166;5.004;2024-02-15T07:53:10;101471.22;;;24.45;42.02
71384;BME280;67558;52.166;5.004;2024-02-15T07:55:36;101472.50;;;24.48;42.03
71384;BME280;67558;52.166;5.004;2024-02-15T07:58:03;101477.63;;;24.49;42.01
71384;BME280;67558;52.166;5.004;2024-02-15T08:00:28;101487.31;;;24.59;41.55
71384;BME280;67558;52.166;5.004;2024-02-15T08:02:55;101487.44;;;24.50;41.81
71384;BME280;67558;52.166;5.004;2024-02-15T08:05:22;101479.91;;;24.60;41.77
71384;BME280;67558;52.166;5.004;2024-02-15T08:07:47;101482.38;;;24.65;41.49
71384;BME280;67558;52.166;5.004;2024-02-15T08:10:13;101489.13;;;24.55;41.74
71384;BME280;67558;52.166;5.004;2024-02-15T08:12:40;101496.75;;;24.74;41.82
71384;BME280;67558;52.166;5.004;2024-02-15T08:15:07;101495.06;;;24.69;41.90
71384;BME280;67558;52.166;5.004;2024-02-15T08:17:43;101497.75;;;24.82;41.15
71384;BME280;67558;52.166;5.004;2024-02-15T08:20:11;101489.66;;;24.85;41.03
71384;BME280;67558;52.166;5.004;2024-02-15T08:22:37;101473.72;;;24.75;40.97
71384;BME280;67558;52.166;5.004;2024-02-15T08:25:08;101463.03;;;24.70;41.10
71384;BME280;67558;52.166;5.004;2024-02-15T08:27:36;101468.00;;;24.80;40.86
71384;BME280;67558;52.166;5.004;2024-02-15T08:30:07;101464.81;;;24.78;40.92
71384;BME280;67558;52.166;5.004;2024-02-15T08:32:34;101462.13;;;24.66;41.29
71384;BME280;67558;52.166;5.004;2024-02-15T08:34:59;101465.28;;;24.80;40.90
71384;BME280;67558;52.166;5.004;2024-02-15T08:37:27;101465.09;;;24.36;41.99
71384;BME280;67558;52.166;5.004;2024-02-15T08:39:59;101442.94;;;24.78;41.20
71384;BME280;67558;52.166;5.004;2024-02-15T08:42:25;101439.34;;;24.90;40.77
71384;BME280;67558;52.166;5.004;2024-02-15T08:44:52;101455.47;;;24.79;40.92
71384;BME280;67558;52.166;5.004;2024-02-15T08:47:17;101461.38;;;24.81;40.90
71384;BME280;67558;52.166;5.004;2024-02-15T08:49:43;101462.44;;;24.77;40.94
71384;BME280;67558;52.166;5.004;2024-02-15T08:52:08;101451.19;;;24.94;40.59
71384;BME280;67558;52.166;5.004;2024-02-15T08:54:34;101460.63;;;24.68;40.96
71384;BME280;67558;52.166;5.004;2024-02-15T08:56:59;101459.38;;;24.66;40.85
71384;BME280;67558;52.166;5.004;2024-02-15T08:59:26;101456.38;;;24.83;40.69
71384;BME280;67558;52.166;5.004;2024-02-15T09:01:53;101453.13;;;24.65;41.01
71384;BME280;67558;52.166;5.004;2024-02-15T09:04:20;101459.84;;;24.96;40.50
71384;BME280;67558;52.166;5.004;2024-02-15T09:06:46;101457.41;;;24.79;41.02
71384;BME280;67558;52.166;5.004;2024-02-15T09:09:12;101457.75;;;24.77;41.06
71384;BME280;67558;52.166;5.004;2024-02-15T09:11:38;101454.44;;;24.71;41.20
71384;BME280;67558;52.166;5.004;2024-02-15T09:14:04;101449.09;;;24.75;40.87
71384;BME280;67558;52.166;5.004;2024-02-15T09:16:29;101453.34;;;25.01;40.47
71384;BME280;67558;52.166;5.004;2024-02-15T09:18:56;101443.13;;;24.85;40.91
71384;BME280;67558;52.166;5.004;2024-02-15T09:21:26;101450.28;;;24.25;42.25
71384;BME280;67558;52.166;5.004;2024-02-15T09:23:53;101451.16;;;24.66;41.17
71384;BME280;67558;52.166;5.004;2024-02-15T09:26:19;101455.50;;;24.67;41.20
71384;BME280;67558;52.166;5.004;2024-02-15T09:28:46;101454.03;;;24.57;41.75
71384;BME280;67558;52.166;5.004;2024-02-15T09:31:14;101457.00;;;24.92;41.13
71384;BME280;67558;52.166;5.004;2024-02-15T09:33:40;101459.34;;;24.78;41.10
71384;BME280;67558;52.166;5.004;2024-02-15T09:36:05;101456.31;;;24.67;41.32
71384;BME280;67558;52.166;5.004;2024-02-15T09:38:31;101455.94;;;24.69;41.21
71384;BME280;67558;52.166;5.004;2024-02-15T09:40:56;101458.47;;;24.62;41.25
71384;BME280;67558;52.166;5.004;2024-02-15T09:43:22;101452.56;;;24.60;41.31
71384;BME280;67558;52.166;5.004;2024-02-15T09:45:52;101457.22;;;24.59;41.24
71384;BME280;67558;52.166;5.004;2024-02-15T09:48:23;101452.22;;;24.49;41.53
71384;BME280;67558;52.166;5.004;2024-02-15T09:50:52;101464.38;;;24.39;41.72
71384;BME280;67558;52.166;5.004;2024-02-15T09:53:22;101462.13;;;24.53;41.73
71384;BME280;67558;52.166;5.004;2024-02-15T09:56:08;101463.00;;;24.45;41.28
71384;BME280;67558;52.166;5.004;2024-02-15T09:58:33;101462.22;;;24.69;40.78
71384;BME280;67558;52.166;5.004;2024-02-15T10:01:04;101451.19;;;24.94;40.63
71384;BME280;67558;52.166;5.004;2024-02-15T10:03:37;101456.66;;;24.66;41.03
71384;BME280;67558;52.166;5.004;2024-02-15T10:06:02;101465.97;;;24.65;41.31
71384;BME280;67558;52.166;5.004;2024-02-15T10:08:29;101465.75;;;24.70;41.49
71384;BME280;67558;52.166;5.004;2024-02-15T10:11:09;101462.22;;;24.69;41.47
71384;BME280;67558;52.166;5.004;2024-02-15T10:13:36;101463.38;;;24.56;41.32
71384;BME280;67558;52.166;5.004;2024-02-15T10:16:18;101461.91;;;24.59;41.73
71384;BME280;67558;52.166;5.004;2024-02-15T10:18:45;101440.22;;;24.41;41.57
71384;BME280;67558;52.166;5.004;2024-02-15T10:21:29;101460.47;;;24.89;40.99
71384;BME280;67558;52.166;5.004;2024-02-15T10:26:31;101463.47;;;24.72;41.08
71384;BME280;67558;52.166;5.004;2024-02-15T10:29:11;101467.13;;;24.76;41.20
71384;BME280;67558;52.166;5.004;2024-02-15T10:31:51;101458.13;;;24.63;41.43
71384;BME280;67558;52.166;5.004;2024-02-15T10:34:17;101461.41;;;24.69;41.20
71384;BME280;67558;52.166;5.004;2024-02-15T10:36:45;101445.59;;;24.62;41.14
71384;BME280;67558;52.166;5.004;2024-02-15T10:41:44;101446.94;;;24.68;41.17
71384;BME280;67558;52.166;5.004;2024-02-15T10:44:25;101450.84;;;24.67;41.16
71384;BME280;67558;52.166;5.004;2024-02-15T10:46:52;101448.31;;;24.62;41.31
71384;BME280;67558;52.166;5.004;2024-02-15T10:49:24;101449.03;;;24.59;41.39
71384;BME280;67558;52.166;5.004;2024-02-15T10:51:57;101453.47;;;24.64;41.64
71384;BME280;67558;52.166;5.004;2024-02-15T10:54:43;101449.47;;;24.61;41.37
71384;BME280;67558;52.166;5.004;2024-02-15T10:57:12;101450.28;;;24.37;41.86
71384;BME280;67558;52.166;5.004;2024-02-15T11:00:02;101455.16;;;24.68;41.46
71384;BME280;67558;52.166;5.004;2024-02-15T11:03:10;101454.69;;;24.66;41.28
71384;BME280;67558;52.166;5.004;2024-02-15T11:05:42;101445.13;;;24.60;41.38
71384;BME280;67558;52.166;5.004;2024-02-15T11:08:09;101449.47;;;24.61;41.47
71384;BME280;67558;52.166;5.004;2024-02-15T11:10:36;101455.06;;;24.40;41.93
71384;BME280;67558;52.166;5.004;2024-02-15T11:13:03;101447.34;;;24.55;41.75
71384;BME280;67558;52.166;5.004;2024-02-15T11:18:02;101453.00;;;24.62;41.71
71384;BME280;67558;52.166;5.004;2024-02-15T11:22:58;101434.88;;;24.69;41.08
71384;BME280;67558;52.166;5.004;2024-02-15T11:25:37;101441.22;;;24.73;40.96
71384;BME280;67558;52.166;5.004;2024-02-15T11:30:53;101427.47;;;24.70;41.03
71384;BME280;67558;52.166;5.004;2024-02-15T11:33:34;101423.38;;;24.51;41.41
71384;BME280;67558;52.166;5.004;2024-02-15T11:36:12;101420.19;;;24.62;41.59
71384;BME280;67558;52.166;5.004;2024-02-15T11:38:39;101414.97;;;24.57;41.66
71384;BME280;67558;52.166;5.004;2024-02-15T11:41:17;101412.44;;;24.51;41.99
71384;BME280;67558;52.166;5.004;2024-02-15T11:46:14;101402.88;;;24.45;42.00
71384;BME280;67558;52.166;5.004;2024-02-15T11:48:39;101406.75;;;24.57;41.69
71384;BME280;67558;52.166;5.004;2024-02-15T11:51:06;101395.69;;;24.65;41.59
71384;BME280;67558;52.166;5.004;2024-02-15T11:53:39;101398.91;;;24.55;41.67
71384;BME280;67558;52.166;5.004;2024-02-15T11:56:05;101391.16;;;24.57;41.70
71384;BME280;67558;52.166;5.004;2024-02-15T11:58:31;101391.00;;;24.66;41.47
71384;BME280;67558;52.166;5.004;2024-02-15T12:01:17;101389.09;;;24.54;41.92
71384;BME280;67558;52.166;5.004;2024-02-15T12:04:01;101382.03;;;24.53;41.63
71384;BME280;67558;52.166;5.004;2024-02-15T12:06:45;101375.41;;;24.54;41.61
71384;BME280;67558;52.166;5.004;2024-02-15T12:09:29;101379.03;;;24.58;41.71
71384;BME280;67558;52.166;5.004;2024-02-15T12:12:13;101377.66;;;24.64;41.30
71384;BME280;67558;52.166;5.004;2024-02-15T12:15:01;101378.44;;;24.65;41.35
71384;BME280;67558;52.166;5.004;2024-02-15T12:17:45;101370.16;;;24.61;41.60
71384;BME280;67558;52.166;5.004;2024-02-15T12:20:29;101370.63;;;24.63;41.53
71384;BME280;67558;52.166;5.004;2024-02-15T12:22:54;101374.81;;;24.61;41.50
71384;BME280;67558;52.166;5.004;2024-02-15T12:25:20;101359.75;;;24.67;41.48
71384;BME280;67558;52.166;5.004;2024-02-15T12:27:54;101370.50;;;24.60;41.80
71384;BME280;67558;52.166;5.004;2024-02-15T12:30:20;101343.16;;;24.60;41.80
71384;BME280;67558;52.166;5.004;2024-02-15T12:32:47;101347.56;;;24.64;41.45
71384;BME280;67558;52.166;5.004;2024-02-15T12:35:20;101340.16;;;24.65;41.55
71384;BME280;67558;52.166;5.004;2024-02-15T12:37:46;101340.47;;;24.76;41.30
71384;BME280;67558;52.166;5.004;2024-02-15T12:40:16;101336.47;;;24.73;41.46
71384;BME280;67558;52.166;5.004;2024-02-15T12:42:43;101340.75;;;24.58;41.65
71384;BME280;67558;52.166;5.004;2024-02-15T12:45:15;101334.94;;;24.60;41.61
71384;BME280;67558;52.166;5.004;2024-02-15T12:47:43;101337.53;;;24.68;41.74
71384;BME280;67558;52.166;5.004;2024-02-15T12:50:18;101340.59;;;24.67;41.68
71384;BME280;67558;52.166;5.004;2024-02-15T12:52:45;101331.88;;;24.61;41.73
71384;BME280;67558;52.166;5.004;2024-02-15T12:55:17;101331.78;;;24.58;41.84
71384;BME280;67558;52.166;5.004;2024-02-15T12:57:46;101330.72;;;24.62;41.93
71384;BME280;67558;52.166;5.004;2024-02-15T13:00:15;101316.06;;;24.55;41.99
71384;BME280;67558;52.166;5.004;2024-02-15T13:02:47;101319.09;;;24.65;41.88
71384;BME280;67558;52.166;5.004;2024-02-15T13:05:19;101311.41;;;24.71;41.48
71384;BME280;67558;52.166;5.004;2024-02-15T13:07:46;101316.69;;;24.64;41.56
71384;BME280;67558;52.166;5.004;2024-02-15T13:10:12;101317.19;;;24.53;41.78
71384;BME280;67558;52.166;5.004;2024-02-15T13:12:43;101312.09;;;24.40;42.05